ADDS METAR Data INFO
IDs: Format: Raw Decoded Include TAF

Data at: 1922 UTC 23 Apr 2018

KEQA 231915Z AUTO 36009G14KT 7SM SCT003 SCT007 22/05 A3008 RMK AO2
KEQA 231855Z AUTO 03008KT 7SM SCT003 SCT007 22/05 A3008 RMK AO2
KEQA 231835Z AUTO 02006G15KT 10SM CLR 22/06 A3009 RMK AO2
KEQA 231815Z AUTO 06008G14KT 10SM CLR 21/06 A3010 RMK AO2
KEQA 231755Z AUTO 04007KT 010V070 10SM CLR 21/03 A3010 RMK AO2
KEQA 231735Z AUTO 04009KT 10SM CLR 21/03 A3011 RMK AO2
KEQA 231715Z AUTO 06010KT 10SM CLR 20/03 A3011 RMK AO2
KEQA 231655Z AUTO 04008KT 10SM SCT070 19/05 A3012 RMK AO2
KEQA 231635Z AUTO 01006KT 10SM OVC070 18/05 A3013 RMK AO2
KEQA 231615Z AUTO 03003KT 10SM OVC070 17/06 A3013 RMK AO2
KEQA 231555Z AUTO 03005KT 10SM OVC070 16/06 A3013 RMK AO2
KEQA 231535Z AUTO 02006KT 10SM OVC070 15/06 A3013 RMK AO2
KEQA 231515Z AUTO 03007KT 10SM OVC070 14/06 A3013 RMK AO2
KEQA 231455Z AUTO 04008KT 10SM OVC070 13/07 A3013 RMK AO2
KEQA 231435Z AUTO 03008KT 10SM OVC070 13/07 A3013 RMK AO2
KEQA 231415Z AUTO 02008KT 10SM OVC070 12/07 A3013 RMK AO2
KEQA 231355Z AUTO 01008KT 10SM OVC070 12/07 A3013 RMK AO2
KEQA 231335Z AUTO 01007KT 10SM OVC070 11/07 A3013 RMK AO2
KEQA 231315Z AUTO 36006KT 10SM OVC070 11/08 A3013 RMK AO2
KEQA 231255Z AUTO 35004KT 10SM OVC070 10/08 A3013 RMK AO2
KEQA 231235Z AUTO 36005KT 10SM BKN070 09/07 A3012 RMK AO2
KEQA 231215Z AUTO 35007KT 10SM CLR 08/06 A3011 RMK AO2
KEQA 231155Z AUTO 35006KT 10SM CLR 07/06 A3011 RMK AO2
KEQA 231135Z AUTO 01005KT 10SM CLR 08/06 A3010 RMK AO2
KEQA 231115Z AUTO 01006KT 10SM CLR 09/07 A3010 RMK AO2
KEQA 231055Z AUTO 01006KT 10SM CLR 08/07 A3010 RMK AO2
KEQA 231035Z AUTO 36008KT 10SM CLR 08/06 A3010 RMK AO2
KEQA 231015Z AUTO 36007KT 10SM CLR 08/07 A3009 RMK AO2
KEQA 230955Z AUTO 35006KT 10SM CLR 08/07 A3009 RMK AO2
KEQA 230935Z AUTO 34006KT 10SM CLR 10/07 A3009 RMK AO2
KEQA 230915Z AUTO 01005KT 10SM SCT030 SCT070 08/07 A3008 RMK AO2
KEQA 230855Z AUTO 36005KT 10SM SCT030 SCT070 09/08 A3009 RMK AO2
KEQA 230835Z AUTO 36006KT 10SM SCT070 10/08 A3008 RMK AO2
KEQA 230815Z AUTO 35005KT 10SM SCT042 SCT065 10/08 A3008 RMK AO2
KEQA 230755Z AUTO 34004KT 10SM SCT042 BKN065 10/08 A3008 RMK AO2
KEQA 230735Z AUTO 01004KT 10SM OVC065 10/08 A3009 RMK AO2
KEQA 230715Z AUTO 01006KT 10SM OVC065 11/09 A3009 RMK AO2
KEQA 230655Z AUTO 36005KT 10SM OVC065 11/10 A3009 RMK AO2
KEQA 230635Z AUTO 35004KT 10SM OVC065 12/10 A3009 RMK AO2
KEQA 230615Z AUTO 33003KT 10SM OVC065 12/10 A3009 RMK AO2
KEQA 230555Z AUTO 34004KT 10SM OVC065 12/10 A3009 RMK AO2
KEQA 230535Z AUTO 34004KT 10SM OVC065 12/10 A3009 RMK AO2
KEQA 230515Z AUTO 34005KT 10SM OVC055 12/10 A3009 RMK AO2
KEQA 230455Z AUTO 35004KT 10SM OVC055 12/11 A3010 RMK AO2
KEQA 230435Z AUTO 34004KT 10SM OVC055 12/11 A3010 RMK AO2
KEQA 230415Z AUTO 32003KT 10SM OVC055 12/11 A3010 RMK AO2
KEQA 230355Z AUTO 00000KT 7SM OVC055 11/11 A3010 RMK AO2
KEQA 230335Z AUTO 00000KT 7SM OVC055 12/11 A3010 RMK AO2
KEQA 230315Z AUTO 32003KT 10SM SCT041 SCT048 OVC055 12/11 A3010 RMK AO2
KEQA 230255Z AUTO 33004KT 10SM BKN037 OVC046 12/11 A3010 RMK AO2
KEQA 230235Z AUTO 33004KT 10SM BKN033 OVC047 12/11 A3010 RMK AO2
KEQA 230215Z AUTO 31004KT 7SM OVC030 12/11 A3010 RMK AO2
KEQA 230155Z AUTO 00000KT 7SM SCT020 OVC026 12/12 A3010 RMK AO2
KEQA 230135Z AUTO 00000KT 7SM SCT011 OVC020 12/12 A3009 RMK AO2
KEQA 230115Z AUTO 05005KT 5SM DZ SCT011 OVC020 12/11 A3009 RMK AO2
KEQA 230055Z AUTO 03007KT 7SM DZ BKN021 OVC026 12/10 A3008 RMK AO2
KEQA 230035Z AUTO 36003KT 10SM OVC025 13/08 A3007 RMK AO2
KEQA 230015Z AUTO 34006KT 10SM BKN025 OVC030 13/08 A3006 RMK AO2
KEQA 222355Z AUTO 33006KT 10SM OVC027 13/09 A3006 RMK AO2
KEQA 222335Z AUTO 35007KT 10SM OVC025 13/08 A3006 RMK AO2
KEQA 222315Z AUTO 35008KT 10SM BKN018 OVC025 13/09 A3006 RMK AO2
KEQA 222255Z AUTO 35012KT 10SM OVC020 13/09 A3005 RMK AO2
KEQA 222235Z AUTO 36010KT 10SM OVC020 13/09 A3005 RMK AO2
KEQA 222215Z AUTO 36010KT 10SM OVC018 13/08 A3005 RMK AO2
KEQA 222155Z AUTO 36010G18KT 10SM OVC016 13/08 A3005 RMK AO2
KEQA 222135Z AUTO 01012G16KT 10SM OVC016 12/08 A3005 RMK AO2
KEQA 222055Z AUTO 34011KT 10SM OVC012 12/08 A3006 RMK AO2
KEQA 222035Z AUTO 36016KT 10SM OVC014 12/08 A3007 RMK AO2
KEQA 221955Z AUTO 01012KT 10SM BKN018 OVC024 12/08 A3008 RMK AO2
KEQA 221915Z AUTO 36015KT 10SM OVC023 12/06 A3008 RMK AO2
KEQA 221855Z AUTO 36017G21KT 10SM OVC021 12/07 A3008 RMK AO2
KEQA 221835Z AUTO 02015G21KT 10SM OVC021 12/07 A3008 RMK AO2
KEQA 221815Z AUTO 02012KT 10SM OVC021 12/07 A3009 RMK AO2
KEQA 221755Z AUTO 01016KT 10SM -RA OVC019 12/07 A3009 RMK AO2
KEQA 221735Z AUTO 36014KT 10SM -RA OVC019 12/06 A3009 RMK AO2
KEQA 221715Z AUTO 36013G17KT 10SM OVC021 12/07 A3010 RMK AO2
KEQA 221655Z AUTO 01014G19KT 10SM OVC023 12/06 A3010 RMK AO2
KEQA 221635Z AUTO 36014G19KT 10SM OVC025 12/07 A3010 RMK AO2
KEQA 221555Z AUTO 36015G22KT 10SM SCT027 BKN036 OVC050 11/06 A3009 RMK AO2
KEQA 221535Z AUTO 36013KT 10SM SCT034 SCT040 OVC050 10/07 A3009 RMK AO2
KEQA 221515Z AUTO 35011KT 10SM OVC038 10/06 A3010 RMK AO2
KEQA 221455Z AUTO 35011KT 10SM OVC042 10/07 A3009 RMK AO2
KEQA 221435Z AUTO 34010KT 10SM SCT032 OVC042 10/07 A3009 RMK AO2
KEQA 221415Z AUTO 34009KT 10SM SCT032 OVC038 08/06 A3009 RMK AO2
KEQA 221355Z AUTO 35009KT 10SM SCT021 SCT026 OVC036 08/06 A3009 RMK AO2
KEQA 221335Z AUTO 34009KT 10SM SCT017 BKN029 OVC034 08/06 A3008 RMK AO2
KEQA 221315Z AUTO 36009KT 10SM SCT023 OVC034 08/06 A3009 RMK AO2
KEQA 221255Z AUTO 36008KT 5SM BR SCT016 BKN025 OVC030 08/07 A3009 RMK AO2
KEQA 221235Z AUTO 01010KT 7SM -RA BKN016 OVC024 08/06 A3010 RMK AO2
KEQA 221215Z AUTO 36009KT 10SM SCT021 BKN027 OVC045 08/06 A3008 RMK AO2
KEQA 221155Z AUTO 35008KT 10SM OVC045 08/06 A3008 RMK AO2
KEQA 221135Z AUTO 34008KT 10SM OVC043 08/06 A3008 RMK AO2
KEQA 221115Z AUTO 34007KT 10SM OVC043 08/06 A3007 RMK AO2
KEQA 221055Z AUTO 34009KT 10SM OVC039 08/06 A3007 RMK AO2
KEQA 221035Z AUTO 36009KT 10SM OVC035 08/06 A3007 RMK AO2
KEQA 221015Z AUTO 36009KT 10SM OVC033 08/07 A3005 RMK AO2
KEQA 220955Z AUTO 35009KT 10SM OVC033 08/07 A3005 RMK AO2
KEQA 220935Z AUTO 36012G15KT 10SM OVC033 08/07 A3005 RMK AO2
KEQA 220915Z AUTO 35012KT 10SM SCT006 OVC033 08/07 A3004 RMK AO2
KEQA 220855Z AUTO 35010KT 10SM BKN004 OVC033 08/07 A3005 RMK AO2
KEQA 220835Z AUTO 36010KT 7SM BKN004 OVC033 08/07 A3005 RMK AO2
KEQA 220815Z AUTO 36009KT 5SM -DZ OVC006 08/07 A3005 RMK AO2
KEQA 220755Z AUTO 01011KT 5SM -RA OVC006 08/07 A3007 RMK AO2
KEQA 220735Z AUTO 36011KT 5SM -RA OVC006 08/07 A3007 RMK AO2